Terminal Aerodrome Forecast
Issued by NWS Chicago, IL

Current Version | Previous Version | Text Only | Print | Product List | Glossary On
Versions: 1 2 3 4 5 6 7 8 9 10 11 12 13 14 15 16 17 18 19 20 21 22 23 24 25 26 27 28 29 30 31 32 33
000
FTUS43 KLOT 150900 AAA
TAFRFD
TAF AMD
KRFD 150900Z 1509/1606 21004KT P6SM BKN070
     FM151200 20004KT P6SM VCSH BKN040 BKN080 BKN120
     FM151400 27006KT 6SM -RA SCT025 OVC035
     FM151700 31008KT 6SM -RA SCT010 BKN015 OVC035
     FM152000 35011KT P6SM SCT012 BKN020 BKN040
     FM152200 35009KT P6SM SCT015=

USA.gov is the U.S. government's official web portal to all federal, state and local government web resources and services.